Oakville, Connecticut
Current Conditions -  °F | °C
As of 3:52 PM on Thursday 18 Dec 2014 (Local Time) from KOXC Reporting Station
Broken Clouds Broken Clouds  
Wind Chill: 33°   Ceiling: 3400
Heat Index: 37°   Visibility: 10mi
Dew Point: 23°   Wind: 6mph
Humidity: 56%   Direction: 330°NNW
Pressure: 29.89"   Gusts: NA
Location:  41.59°N, 73.08°W
Report Text: KOXC 182052Z 33005KT 10SM BKN034 03/M05 A2989
Loading
Personal Weather Stations






























Interactive Weather Map New forecast layout! Learn more

10-Day Weather Forecast

Advertisements
Track Severe Weather on mobile